sensor_id;sensor_type;location;lat;lon;timestamp;P1;durP1;ratioP1;P2;durP2;ratioP2
7193;SDS011;3638;48.820;9.244;2023-12-07T00:00:35;12.90;;;9.27;;
7193;SDS011;3638;48.820;9.244;2023-12-07T00:03:03;10.17;;;9.07;;
7193;SDS011;3638;48.820;9.244;2023-12-07T00:05:31;11.37;;;9.60;;
7193;SDS011;3638;48.820;9.244;2023-12-07T00:07:59;10.47;;;8.53;;
7193;SDS011;3638;48.820;9.244;2023-12-07T00:10:26;10.33;;;8.93;;
7193;SDS011;3638;48.820;9.244;2023-12-07T00:12:55;10.30;;;9.23;;
7193;SDS011;3638;48.820;9.244;2023-12-07T00:15:22;10.97;;;9.77;;
7193;SDS011;3638;48.820;9.244;2023-12-07T00:17:49;10.97;;;9.40;;
7193;SDS011;3638;48.820;9.244;2023-12-07T00:20:16;10.53;;;9.53;;
7193;SDS011;3638;48.820;9.244;2023-12-07T00:22:44;11.20;;;9.07;;
7193;SDS011;3638;48.820;9.244;2023-12-07T00:25:11;11.70;;;8.87;;
7193;SDS011;3638;48.820;9.244;2023-12-07T00:27:38;9.83;;;8.80;;
7193;SDS011;3638;48.820;9.244;2023-12-07T00:30:08;9.67;;;8.67;;
7193;SDS011;3638;48.820;9.244;2023-12-07T00:32:36;11.13;;;9.00;;
7193;SDS011;3638;48.820;9.244;2023-12-07T00:35:03;11.93;;;9.23;;
7193;SDS011;3638;48.820;9.244;2023-12-07T00:37:32;10.73;;;9.43;;
7193;SDS011;3638;48.820;9.244;2023-12-07T00:40:00;11.37;;;9.37;;
7193;SDS011;3638;48.820;9.244;2023-12-07T00:42:27;11.27;;;8.60;;
7193;SDS011;3638;48.820;9.244;2023-12-07T00:44:54;10.63;;;9.53;;
7193;SDS011;3638;48.820;9.244;2023-12-07T00:47:23;11.30;;;9.27;;
7193;SDS011;3638;48.820;9.244;2023-12-07T00:49:50;11.87;;;9.63;;
7193;SDS011;3638;48.820;9.244;2023-12-07T00:52:17;13.73;;;9.17;;
7193;SDS011;3638;48.820;9.244;2023-12-07T00:54:44;10.77;;;9.17;;
7193;SDS011;3638;48.820;9.244;2023-12-07T00:57:12;10.87;;;9.50;;
7193;SDS011;3638;48.820;9.244;2023-12-07T00:59:39;13.83;;;9.30;;
7193;SDS011;3638;48.820;9.244;2023-12-07T01:02:06;10.97;;;9.87;;
7193;SDS011;3638;48.820;9.244;2023-12-07T01:04:35;12.63;;;10.17;;
7193;SDS011;3638;48.820;9.244;2023-12-07T01:07:02;11.83;;;9.30;;
7193;SDS011;3638;48.820;9.244;2023-12-07T01:09:29;10.17;;;9.17;;
7193;SDS011;3638;48.820;9.244;2023-12-07T01:11:56;10.83;;;9.20;;
7193;SDS011;3638;48.820;9.244;2023-12-07T01:14:24;10.17;;;9.13;;
7193;SDS011;3638;48.820;9.244;2023-12-07T01:16:51;16.73;;;10.23;;
7193;SDS011;3638;48.820;9.244;2023-12-07T01:19:18;9.33;;;8.43;;
7193;SDS011;3638;48.820;9.244;2023-12-07T01:21:47;12.33;;;8.97;;
7193;SDS011;3638;48.820;9.244;2023-12-07T01:24:14;9.33;;;8.43;;
7193;SDS011;3638;48.820;9.244;2023-12-07T01:26:42;11.17;;;9.40;;
7193;SDS011;3638;48.820;9.244;2023-12-07T01:29:09;9.83;;;8.73;;
7193;SDS011;3638;48.820;9.244;2023-12-07T01:31:36;10.13;;;9.10;;
7193;SDS011;3638;48.820;9.244;2023-12-07T01:34:04;10.50;;;9.07;;
7193;SDS011;3638;48.820;9.244;2023-12-07T01:36:31;11.53;;;9.53;;
7193;SDS011;3638;48.820;9.244;2023-12-07T01:39:00;10.40;;;8.90;;
7193;SDS011;3638;48.820;9.244;2023-12-07T01:41:27;10.43;;;9.00;;
7193;SDS011;3638;48.820;9.244;2023-12-07T01:43:54;10.47;;;9.20;;
7193;SDS011;3638;48.820;9.244;2023-12-07T01:46:22;12.07;;;10.20;;
7193;SDS011;3638;48.820;9.244;2023-12-07T01:48:49;10.40;;;9.13;;
7193;SDS011;3638;48.820;9.244;2023-12-07T01:51:17;11.33;;;8.93;;
7193;SDS011;3638;48.820;9.244;2023-12-07T01:53:45;11.80;;;9.60;;
7193;SDS011;3638;48.820;9.244;2023-12-07T01:56:14;11.30;;;8.83;;
7193;SDS011;3638;48.820;9.244;2023-12-07T01:58:42;10.43;;;9.07;;
7193;SDS011;3638;48.820;9.244;2023-12-07T02:01:09;12.13;;;9.20;;
7193;SDS011;3638;48.820;9.244;2023-12-07T02:03:38;10.70;;;9.60;;
7193;SDS011;3638;48.820;9.244;2023-12-07T02:06:06;12.43;;;9.60;;
7193;SDS011;3638;48.820;9.244;2023-12-07T02:08:35;11.13;;;9.50;;
7193;SDS011;3638;48.820;9.244;2023-12-07T02:11:06;9.90;;;8.90;;
7193;SDS011;3638;48.820;9.244;2023-12-07T02:13:35;9.70;;;8.70;;
7193;SDS011;3638;48.820;9.244;2023-12-07T02:16:04;10.43;;;9.30;;
7193;SDS011;3638;48.820;9.244;2023-12-07T02:18:38;10.60;;;9.60;;
7193;SDS011;3638;48.820;9.244;2023-12-07T02:21:10;12.63;;;10.03;;
7193;SDS011;3638;48.820;9.244;2023-12-07T02:23:40;10.90;;;9.50;;
7193;SDS011;3638;48.820;9.244;2023-12-07T02:26:08;11.67;;;10.00;;
7193;SDS011;3638;48.820;9.244;2023-12-07T02:28:38;11.03;;;9.90;;
7193;SDS011;3638;48.820;9.244;2023-12-07T02:31:05;10.97;;;9.23;;
7193;SDS011;3638;48.820;9.244;2023-12-07T02:33:33;10.77;;;9.43;;
7193;SDS011;3638;48.820;9.244;2023-12-07T02:36:00;11.87;;;10.20;;
7193;SDS011;3638;48.820;9.244;2023-12-07T02:38:27;12.03;;;10.10;;
7193;SDS011;3638;48.820;9.244;2023-12-07T02:40:56;11.50;;;9.40;;
7193;SDS011;3638;48.820;9.244;2023-12-07T02:43:23;11.23;;;10.03;;
7193;SDS011;3638;48.820;9.244;2023-12-07T02:45:52;10.37;;;9.30;;
7193;SDS011;3638;48.820;9.244;2023-12-07T02:48:20;10.90;;;9.80;;
7193;SDS011;3638;48.820;9.244;2023-12-07T02:50:47;13.70;;;10.40;;
7193;SDS011;3638;48.820;9.244;2023-12-07T02:53:14;11.80;;;10.33;;
7193;SDS011;3638;48.820;9.244;2023-12-07T02:55:42;11.03;;;9.60;;
7193;SDS011;3638;48.820;9.244;2023-12-07T02:58:09;10.97;;;9.87;;
7193;SDS011;3638;48.820;9.244;2023-12-07T03:00:36;11.67;;;10.43;;
7193;SDS011;3638;48.820;9.244;2023-12-07T03:03:05;11.93;;;10.67;;
7193;SDS011;3638;48.820;9.244;2023-12-07T03:05:32;11.70;;;10.50;;
7193;SDS011;3638;48.820;9.244;2023-12-07T03:07:59;11.23;;;10.00;;
7193;SDS011;3638;48.820;9.244;2023-12-07T03:10:26;12.10;;;10.03;;
7193;SDS011;3638;48.820;9.244;2023-12-07T03:12:53;11.60;;;10.30;;
7193;SDS011;3638;48.820;9.244;2023-12-07T03:15:21;11.30;;;10.17;;
7193;SDS011;3638;48.820;9.244;2023-12-07T03:17:48;13.13;;;9.97;;
7193;SDS011;3638;48.820;9.244;2023-12-07T03:20:17;12.33;;;10.77;;
7193;SDS011;3638;48.820;9.244;2023-12-07T03:22:44;12.13;;;10.00;;
7193;SDS011;3638;48.820;9.244;2023-12-07T03:25:12;12.93;;;10.40;;
7193;SDS011;3638;48.820;9.244;2023-12-07T03:27:39;12.03;;;10.73;;
7193;SDS011;3638;48.820;9.244;2023-12-07T03:30:06;12.90;;;10.43;;
7193;SDS011;3638;48.820;9.244;2023-12-07T03:32:34;11.57;;;10.37;;
7193;SDS011;3638;48.820;9.244;2023-12-07T03:35:01;11.47;;;10.03;;
7193;SDS011;3638;48.820;9.244;2023-12-07T03:37:30;12.33;;;10.60;;
7193;SDS011;3638;48.820;9.244;2023-12-07T03:39:57;11.97;;;10.73;;
7193;SDS011;3638;48.820;9.244;2023-12-07T03:42:25;12.20;;;10.90;;
7193;SDS011;3638;48.820;9.244;2023-12-07T03:44:52;12.40;;;10.37;;
7193;SDS011;3638;48.820;9.244;2023-12-07T03:47:19;12.10;;;10.87;;
7193;SDS011;3638;48.820;9.244;2023-12-07T03:49:46;10.83;;;9.83;;
7193;SDS011;3638;48.820;9.244;2023-12-07T03:52:14;11.77;;;10.57;;
7193;SDS011;3638;48.820;9.244;2023-12-07T03:54:42;12.20;;;10.90;;
7193;SDS011;3638;48.820;9.244;2023-12-07T03:57:09;13.93;;;11.43;;
7193;SDS011;3638;48.820;9.244;2023-12-07T03:59:36;13.47;;;12.03;;
7193;SDS011;3638;48.820;9.244;2023-12-07T04:02:04;11.63;;;10.43;;
7193;SDS011;3638;48.820;9.244;2023-12-07T04:04:31;12.70;;;11.40;;
7193;SDS011;3638;48.820;9.244;2023-12-07T04:06:58;12.87;;;11.50;;
7193;SDS011;3638;48.820;9.244;2023-12-07T04:09:25;12.63;;;11.13;;
7193;SDS011;3638;48.820;9.244;2023-12-07T04:11:54;13.40;;;11.33;;
7193;SDS011;3638;48.820;9.244;2023-12-07T04:14:22;13.27;;;11.20;;
7193;SDS011;3638;48.820;9.244;2023-12-07T04:16:49;13.40;;;11.70;;
7193;SDS011;3638;48.820;9.244;2023-12-07T04:19:16;13.60;;;11.60;;
7193;SDS011;3638;48.820;9.244;2023-12-07T04:21:43;13.00;;;11.60;;
7193;SDS011;3638;48.820;9.244;2023-12-07T04:24:10;13.07;;;11.67;;
7193;SDS011;3638;48.820;9.244;2023-12-07T04:26:37;12.00;;;10.83;;
7193;SDS011;3638;48.820;9.244;2023-12-07T04:29:06;12.33;;;11.03;;
7193;SDS011;3638;48.820;9.244;2023-12-07T04:31:33;14.17;;;11.70;;
7193;SDS011;3638;48.820;9.244;2023-12-07T04:34:01;13.97;;;12.47;;
7193;SDS011;3638;48.820;9.244;2023-12-07T04:36:28;13.70;;;12.30;;
7193;SDS011;3638;48.820;9.244;2023-12-07T04:38:56;13.07;;;11.77;;
7193;SDS011;3638;48.820;9.244;2023-12-07T04:41:23;14.70;;;12.27;;
7193;SDS011;3638;48.820;9.244;2023-12-07T04:43:50;13.57;;;12.17;;
7193;SDS011;3638;48.820;9.244;2023-12-07T04:46:18;14.23;;;12.67;;
7193;SDS011;3638;48.820;9.244;2023-12-07T04:48:46;14.70;;;13.20;;
7193;SDS011;3638;48.820;9.244;2023-12-07T04:51:13;14.37;;;12.87;;
7193;SDS011;3638;48.820;9.244;2023-12-07T04:53:40;16.07;;;13.20;;
7193;SDS011;3638;48.820;9.244;2023-12-07T04:56:08;15.23;;;12.87;;
7193;SDS011;3638;48.820;9.244;2023-12-07T04:58:35;16.23;;;14.47;;
7193;SDS011;3638;48.820;9.244;2023-12-07T05:01:02;15.03;;;13.17;;
7193;SDS011;3638;48.820;9.244;2023-12-07T05:03:31;14.67;;;13.10;;
7193;SDS011;3638;48.820;9.244;2023-12-07T05:05:58;15.90;;;13.33;;
7193;SDS011;3638;48.820;9.244;2023-12-07T05:08:26;15.33;;;13.23;;
7193;SDS011;3638;48.820;9.244;2023-12-07T05:10:53;14.83;;;13.00;;
7193;SDS011;3638;48.820;9.244;2023-12-07T05:13:20;13.83;;;12.43;;
7193;SDS011;3638;48.820;9.244;2023-12-07T05:15:47;14.13;;;12.63;;
7193;SDS011;3638;48.820;9.244;2023-12-07T05:18:15;15.30;;;13.43;;
7193;SDS011;3638;48.820;9.244;2023-12-07T05:20:43;14.33;;;12.83;;
7193;SDS011;3638;48.820;9.244;2023-12-07T05:23:10;16.03;;;12.93;;
7193;SDS011;3638;48.820;9.244;2023-12-07T05:25:38;15.47;;;13.13;;
7193;SDS011;3638;48.820;9.244;2023-12-07T05:28:05;14.87;;;12.90;;
7193;SDS011;3638;48.820;9.244;2023-12-07T05:30:32;15.57;;;13.80;;
7193;SDS011;3638;48.820;9.244;2023-12-07T05:32:59;15.37;;;12.90;;
7193;SDS011;3638;48.820;9.244;2023-12-07T05:35:26;15.37;;;13.77;;
7193;SDS011;3638;48.820;9.244;2023-12-07T05:37:55;15.20;;;13.60;;
7193;SDS011;3638;48.820;9.244;2023-12-07T05:40:23;15.57;;;13.47;;
7193;SDS011;3638;48.820;9.244;2023-12-07T05:42:51;15.20;;;13.60;;
7193;SDS011;3638;48.820;9.244;2023-12-07T05:45:18;16.47;;;13.87;;
7193;SDS011;3638;48.820;9.244;2023-12-07T05:47:45;15.07;;;13.17;;
7193;SDS011;3638;48.820;9.244;2023-12-07T05:50:12;15.50;;;13.87;;
7193;SDS011;3638;48.820;9.244;2023-12-07T05:52:40;14.93;;;13.10;;
7193;SDS011;3638;48.820;9.244;2023-12-07T05:55:08;14.73;;;12.67;;
7193;SDS011;3638;48.820;9.244;2023-12-07T05:57:36;14.20;;;12.70;;
7193;SDS011;3638;48.820;9.244;2023-12-07T06:00:03;17.77;;;15.43;;
7193;SDS011;3638;48.820;9.244;2023-12-07T06:02:34;18.63;;;15.33;;
7193;SDS011;3638;48.820;9.244;2023-12-07T06:05:01;17.57;;;15.63;;
7193;SDS011;3638;48.820;9.244;2023-12-07T06:07:29;17.47;;;15.40;;
7193;SDS011;3638;48.820;9.244;2023-12-07T06:09:56;17.03;;;15.33;;
7193;SDS011;3638;48.820;9.244;2023-12-07T06:12:24;16.83;;;15.13;;
7193;SDS011;3638;48.820;9.244;2023-12-07T06:14:53;14.43;;;12.93;;
7193;SDS011;3638;48.820;9.244;2023-12-07T06:17:20;15.37;;;13.77;;
7193;SDS011;3638;48.820;9.244;2023-12-07T06:19:47;16.90;;;14.50;;
7193;SDS011;3638;48.820;9.244;2023-12-07T06:22:14;15.93;;;14.23;;
7193;SDS011;3638;48.820;9.244;2023-12-07T06:24:42;17.13;;;15.10;;
7193;SDS011;3638;48.820;9.244;2023-12-07T06:27:09;20.33;;;14.73;;
7193;SDS011;3638;48.820;9.244;2023-12-07T06:29:38;17.53;;;15.00;;
7193;SDS011;3638;48.820;9.244;2023-12-07T06:32:05;17.03;;;13.63;;
7193;SDS011;3638;48.820;9.244;2023-12-07T06:34:33;15.60;;;13.87;;
7193;SDS011;3638;48.820;9.244;2023-12-07T06:37:00;17.80;;;14.47;;
7193;SDS011;3638;48.820;9.244;2023-12-07T06:39:27;17.73;;;15.83;;
7193;SDS011;3638;48.820;9.244;2023-12-07T06:41:54;17.37;;;15.07;;
7193;SDS011;3638;48.820;9.244;2023-12-07T06:44:22;17.70;;;15.17;;
7193;SDS011;3638;48.820;9.244;2023-12-07T06:46:50;19.37;;;14.97;;
7193;SDS011;3638;48.820;9.244;2023-12-07T06:49:17;19.00;;;15.63;;
7193;SDS011;3638;48.820;9.244;2023-12-07T06:51:45;18.47;;;15.03;;
7193;SDS011;3638;48.820;9.244;2023-12-07T06:54:12;18.87;;;15.33;;
7193;SDS011;3638;48.820;9.244;2023-12-07T06:56:39;18.30;;;15.07;;
7193;SDS011;3638;48.820;9.244;2023-12-07T06:59:06;15.93;;;14.00;;
7193;SDS011;3638;48.820;9.244;2023-12-07T07:01:35;19.53;;;15.10;;
7193;SDS011;3638;48.820;9.244;2023-12-07T07:04:04;16.60;;;14.87;;
7193;SDS011;3638;48.820;9.244;2023-12-07T07:06:31;17.77;;;14.93;;
7193;SDS011;3638;48.820;9.244;2023-12-07T07:08:58;17.47;;;14.97;;
7193;SDS011;3638;48.820;9.244;2023-12-07T07:11:25;18.90;;;15.13;;
7193;SDS011;3638;48.820;9.244;2023-12-07T07:13:53;19.20;;;15.97;;
7193;SDS011;3638;48.820;9.244;2023-12-07T07:16:21;18.20;;;15.73;;
7193;SDS011;3638;48.820;9.244;2023-12-07T07:18:48;18.43;;;15.27;;
7193;SDS011;3638;48.820;9.244;2023-12-07T07:21:16;19.77;;;15.90;;
7193;SDS011;3638;48.820;9.244;2023-12-07T07:23:44;18.47;;;15.77;;
7193;SDS011;3638;48.820;9.244;2023-12-07T07:26:12;18.23;;;15.53;;
7193;SDS011;3638;48.820;9.244;2023-12-07T07:28:41;18.40;;;14.77;;
7193;SDS011;3638;48.820;9.244;2023-12-07T07:31:09;18.60;;;15.67;;
7193;SDS011;3638;48.820;9.244;2023-12-07T07:33:36;17.17;;;15.30;;
7193;SDS011;3638;48.820;9.244;2023-12-07T07:36:03;18.57;;;15.87;;
7193;SDS011;3638;48.820;9.244;2023-12-07T07:38:32;18.07;;;14.90;;
7193;SDS011;3638;48.820;9.244;2023-12-07T07:41:00;18.20;;;15.07;;
7193;SDS011;3638;48.820;9.244;2023-12-07T07:43:27;16.40;;;14.60;;
7193;SDS011;3638;48.820;9.244;2023-12-07T07:45:54;16.63;;;14.47;;
7193;SDS011;3638;48.820;9.244;2023-12-07T07:48:22;15.77;;;14.03;;
7193;SDS011;3638;48.820;9.244;2023-12-07T07:50:51;19.93;;;15.33;;
7193;SDS011;3638;48.820;9.244;2023-12-07T07:53:18;18.33;;;14.33;;
7193;SDS011;3638;48.820;9.244;2023-12-07T07:55:46;18.87;;;14.73;;
7193;SDS011;3638;48.820;9.244;2023-12-07T07:58:14;19.47;;;14.90;;
7193;SDS011;3638;48.820;9.244;2023-12-07T08:00:41;20.50;;;15.73;;
7193;SDS011;3638;48.820;9.244;2023-12-07T08:03:11;21.27;;;17.13;;
7193;SDS011;3638;48.820;9.244;2023-12-07T08:05:38;17.90;;;15.13;;
7193;SDS011;3638;48.820;9.244;2023-12-07T08:08:05;21.33;;;16.47;;
7193;SDS011;3638;48.820;9.244;2023-12-07T08:10:34;24.53;;;18.00;;
7193;SDS011;3638;48.820;9.244;2023-12-07T08:13:02;22.00;;;18.13;;
7193;SDS011;3638;48.820;9.244;2023-12-07T08:15:30;23.70;;;18.87;;
7193;SDS011;3638;48.820;9.244;2023-12-07T08:17:57;21.10;;;18.67;;
7193;SDS011;3638;48.820;9.244;2023-12-07T08:20:24;20.23;;;17.43;;
7193;SDS011;3638;48.820;9.244;2023-12-07T08:22:51;22.13;;;17.67;;
7193;SDS011;3638;48.820;9.244;2023-12-07T08:25:19;22.43;;;17.30;;
7193;SDS011;3638;48.820;9.244;2023-12-07T08:27:46;21.53;;;17.10;;
7193;SDS011;3638;48.820;9.244;2023-12-07T08:30:15;20.70;;;17.10;;
7193;SDS011;3638;48.820;9.244;2023-12-07T08:32:43;22.17;;;17.07;;
7193;SDS011;3638;48.820;9.244;2023-12-07T08:35:11;19.33;;;16.83;;
7193;SDS011;3638;48.820;9.244;2023-12-07T08:37:38;19.40;;;17.23;;
7193;SDS011;3638;48.820;9.244;2023-12-07T08:40:05;21.00;;;17.17;;
7193;SDS011;3638;48.820;9.244;2023-12-07T08:42:36;22.17;;;16.60;;
7193;SDS011;3638;48.820;9.244;2023-12-07T08:45:03;20.60;;;17.27;;
7193;SDS011;3638;48.820;9.244;2023-12-07T08:47:33;19.40;;;15.53;;
7193;SDS011;3638;48.820;9.244;2023-12-07T08:50:00;19.10;;;16.00;;
7193;SDS011;3638;48.820;9.244;2023-12-07T08:52:27;18.63;;;15.43;;
7193;SDS011;3638;48.820;9.244;2023-12-07T08:54:54;19.90;;;15.97;;
7193;SDS011;3638;48.820;9.244;2023-12-07T08:57:21;18.10;;;15.20;;
7193;SDS011;3638;48.820;9.244;2023-12-07T08:59:49;20.93;;;16.10;;
7193;SDS011;3638;48.820;9.244;2023-12-07T09:02:16;16.30;;;14.57;;
7193;SDS011;3638;48.820;9.244;2023-12-07T09:04:45;17.03;;;15.13;;
7193;SDS011;3638;48.820;9.244;2023-12-07T09:07:14;17.37;;;13.63;;
7193;SDS011;3638;48.820;9.244;2023-12-07T09:09:41;15.90;;;13.83;;
7193;SDS011;3638;48.820;9.244;2023-12-07T09:12:12;17.30;;;13.23;;
7193;SDS011;3638;48.820;9.244;2023-12-07T09:14:39;15.17;;;13.37;;
7193;SDS011;3638;48.820;9.244;2023-12-07T09:17:06;16.97;;;14.23;;
7193;SDS011;3638;48.820;9.244;2023-12-07T09:19:33;15.63;;;13.23;;
7193;SDS011;3638;48.820;9.244;2023-12-07T09:22:02;14.70;;;13.10;;
7193;SDS011;3638;48.820;9.244;2023-12-07T09:24:29;14.63;;;12.53;;
7193;SDS011;3638;48.820;9.244;2023-12-07T09:26:56;13.03;;;11.70;;
7193;SDS011;3638;48.820;9.244;2023-12-07T09:29:24;15.40;;;11.93;;
7193;SDS011;3638;48.820;9.244;2023-12-07T09:31:51;14.93;;;11.10;;
7193;SDS011;3638;48.820;9.244;2023-12-07T09:34:18;13.17;;;11.00;;
7193;SDS011;3638;48.820;9.244;2023-12-07T09:36:46;11.10;;;9.83;;
7193;SDS011;3638;48.820;9.244;2023-12-07T09:39:14;13.07;;;10.60;;
7193;SDS011;3638;48.820;9.244;2023-12-07T09:41:42;11.70;;;10.50;;
7193;SDS011;3638;48.820;9.244;2023-12-07T09:44:12;10.87;;;9.77;;
7193;SDS011;3638;48.820;9.244;2023-12-07T09:46:39;10.30;;;9.20;;
7193;SDS011;3638;48.820;9.244;2023-12-07T09:49:06;11.43;;;9.50;;
7193;SDS011;3638;48.820;9.244;2023-12-07T09:51:34;11.30;;;9.90;;
7193;SDS011;3638;48.820;9.244;2023-12-07T09:54:02;11.97;;;10.63;;
7193;SDS011;3638;48.820;9.244;2023-12-07T09:56:31;13.27;;;11.13;;
7193;SDS011;3638;48.820;9.244;2023-12-07T09:58:58;12.17;;;10.87;;
7193;SDS011;3638;48.820;9.244;2023-12-07T10:01:28;11.80;;;10.60;;
7193;SDS011;3638;48.820;9.244;2023-12-07T10:06:45;11.57;;;10.37;;
7193;SDS011;3638;48.820;9.244;2023-12-07T10:09:12;11.33;;;9.87;;
7193;SDS011;3638;48.820;9.244;2023-12-07T10:11:41;14.30;;;10.43;;
7193;SDS011;3638;48.820;9.244;2023-12-07T10:14:09;13.57;;;11.37;;
7193;SDS011;3638;48.820;9.244;2023-12-07T10:16:37;12.03;;;10.83;;
7193;SDS011;3638;48.820;9.244;2023-12-07T10:19:13;15.73;;;11.30;;
7193;SDS011;3638;48.820;9.244;2023-12-07T10:21:42;17.00;;;11.60;;
7193;SDS011;3638;48.820;9.244;2023-12-07T10:24:11;12.43;;;10.43;;
7193;SDS011;3638;48.820;9.244;2023-12-07T10:26:38;11.03;;;9.93;;
7193;SDS011;3638;48.820;9.244;2023-12-07T10:29:07;11.63;;;10.00;;
7193;SDS011;3638;48.820;9.244;2023-12-07T10:31:34;12.53;;;10.50;;
7193;SDS011;3638;48.820;9.244;2023-12-07T10:34:02;11.93;;;10.60;;
7193;SDS011;3638;48.820;9.244;2023-12-07T10:36:29;11.60;;;10.40;;
7193;SDS011;3638;48.820;9.244;2023-12-07T10:38:57;11.53;;;10.30;;
7193;SDS011;3638;48.820;9.244;2023-12-07T10:41:25;12.47;;;10.30;;
7193;SDS011;3638;48.820;9.244;2023-12-07T10:43:53;10.83;;;9.73;;
7193;SDS011;3638;48.820;9.244;2023-12-07T10:46:23;11.70;;;9.93;;
7193;SDS011;3638;48.820;9.244;2023-12-07T10:48:54;11.17;;;10.03;;
7193;SDS011;3638;48.820;9.244;2023-12-07T10:51:27;11.23;;;10.03;;
7193;SDS011;3638;48.820;9.244;2023-12-07T10:53:57;12.23;;;10.10;;
7193;SDS011;3638;48.820;9.244;2023-12-07T10:56:28;10.77;;;9.63;;
7193;SDS011;3638;48.820;9.244;2023-12-07T10:58:58;10.60;;;9.23;;
7193;SDS011;3638;48.820;9.244;2023-12-07T11:01:27;12.00;;;10.13;;
7193;SDS011;3638;48.820;9.244;2023-12-07T11:03:55;12.33;;;10.07;;
7193;SDS011;3638;48.820;9.244;2023-12-07T11:06:23;11.43;;;9.70;;
7193;SDS011;3638;48.820;9.244;2023-12-07T11:08:51;14.43;;;9.87;;
7193;SDS011;3638;48.820;9.244;2023-12-07T11:11:22;11.00;;;9.87;;
7193;SDS011;3638;48.820;9.244;2023-12-07T11:13:57;10.17;;;9.17;;
7193;SDS011;3638;48.820;9.244;2023-12-07T11:16:30;10.83;;;8.47;;
7193;SDS011;3638;48.820;9.244;2023-12-07T11:18:58;12.90;;;9.40;;
7193;SDS011;3638;48.820;9.244;2023-12-07T11:21:25;9.80;;;8.80;;
7193;SDS011;3638;48.820;9.244;2023-12-07T11:23:53;9.00;;;8.10;;
7193;SDS011;3638;48.820;9.244;2023-12-07T11:26:20;9.33;;;7.93;;
7193;SDS011;3638;48.820;9.244;2023-12-07T11:28:49;8.93;;;8.03;;
7193;SDS011;3638;48.820;9.244;2023-12-07T11:31:16;9.10;;;7.30;;
7193;SDS011;3638;48.820;9.244;2023-12-07T11:33:45;8.37;;;7.50;;
7193;SDS011;3638;48.820;9.244;2023-12-07T11:36:13;9.97;;;7.53;;
7193;SDS011;3638;48.820;9.244;2023-12-07T11:41:40;8.43;;;7.53;;
7193;SDS011;3638;48.820;9.244;2023-12-07T11:44:10;9.17;;;6.97;;
7193;SDS011;3638;48.820;9.244;2023-12-07T11:46:37;9.10;;;7.30;;
7193;SDS011;3638;48.820;9.244;2023-12-07T11:49:05;7.53;;;6.33;;
7193;SDS011;3638;48.820;9.244;2023-12-07T11:51:35;9.33;;;6.00;;
7193;SDS011;3638;48.820;9.244;2023-12-07T11:54:03;8.80;;;6.20;;
7193;SDS011;3638;48.820;9.244;2023-12-07T11:56:33;7.97;;;6.80;;
7193;SDS011;3638;48.820;9.244;2023-12-07T11:59:00;5.83;;;5.30;;
7193;SDS011;3638;48.820;9.244;2023-12-07T12:01:28;6.80;;;6.10;;
7193;SDS011;3638;48.820;9.244;2023-12-07T12:03:55;9.90;;;6.20;;
7193;SDS011;3638;48.820;9.244;2023-12-07T12:06:24;6.90;;;6.23;;
7193;SDS011;3638;48.820;9.244;2023-12-07T12:08:52;6.67;;;5.90;;
7193;SDS011;3638;48.820;9.244;2023-12-07T12:11:20;5.83;;;5.23;;
7193;SDS011;3638;48.820;9.244;2023-12-07T12:13:47;6.20;;;5.60;;
7193;SDS011;3638;48.820;9.244;2023-12-07T12:16:14;5.83;;;5.33;;
7193;SDS011;3638;48.820;9.244;2023-12-07T12:18:42;6.80;;;5.47;;
7193;SDS011;3638;48.820;9.244;2023-12-07T12:21:09;8.83;;;6.47;;
7193;SDS011;3638;48.820;9.244;2023-12-07T12:23:37;7.73;;;6.07;;
7193;SDS011;3638;48.820;9.244;2023-12-07T12:26:05;7.67;;;6.97;;
7193;SDS011;3638;48.820;9.244;2023-12-07T12:28:35;8.27;;;7.20;;
7193;SDS011;3638;48.820;9.244;2023-12-07T12:31:07;7.07;;;6.37;;
7193;SDS011;3638;48.820;9.244;2023-12-07T12:33:36;7.40;;;6.60;;
7193;SDS011;3638;48.820;9.244;2023-12-07T12:36:04;7.53;;;6.20;;
7193;SDS011;3638;48.820;9.244;2023-12-07T12:38:33;7.47;;;6.30;;
7193;SDS011;3638;48.820;9.244;2023-12-07T12:41:01;6.77;;;6.07;;
7193;SDS011;3638;48.820;9.244;2023-12-07T12:43:29;7.33;;;5.80;;
7193;SDS011;3638;48.820;9.244;2023-12-07T12:45:58;7.83;;;6.00;;
7193;SDS011;3638;48.820;9.244;2023-12-07T12:48:26;6.60;;;5.97;;
7193;SDS011;3638;48.820;9.244;2023-12-07T12:50:54;5.93;;;5.40;;
7193;SDS011;3638;48.820;9.244;2023-12-07T12:53:21;6.37;;;5.77;;
7193;SDS011;3638;48.820;9.244;2023-12-07T12:55:50;6.63;;;5.70;;
7193;SDS011;3638;48.820;9.244;2023-12-07T12:58:18;7.03;;;5.83;;
7193;SDS011;3638;48.820;9.244;2023-12-07T13:00:47;6.00;;;5.40;;
7193;SDS011;3638;48.820;9.244;2023-12-07T13:03:14;7.93;;;6.23;;
7193;SDS011;3638;48.820;9.244;2023-12-07T13:05:42;6.50;;;5.60;;
7193;SDS011;3638;48.820;9.244;2023-12-07T13:08:09;7.77;;;5.67;;
7193;SDS011;3638;48.820;9.244;2023-12-07T13:10:36;7.30;;;5.70;;
7193;SDS011;3638;48.820;9.244;2023-12-07T13:13:03;6.40;;;5.80;;
7193;SDS011;3638;48.820;9.244;2023-12-07T13:15:33;7.73;;;6.23;;
7193;SDS011;3638;48.820;9.244;2023-12-07T13:18:01;5.97;;;5.40;;
7193;SDS011;3638;48.820;9.244;2023-12-07T13:20:29;5.60;;;4.80;;
7193;SDS011;3638;48.820;9.244;2023-12-07T13:22:57;5.77;;;4.30;;
7193;SDS011;3638;48.820;9.244;2023-12-07T13:25:24;5.23;;;4.40;;
7193;SDS011;3638;48.820;9.244;2023-12-07T13:27:51;5.03;;;4.53;;
7193;SDS011;3638;48.820;9.244;2023-12-07T13:30:19;5.23;;;4.63;;
7193;SDS011;3638;48.820;9.244;2023-12-07T13:32:48;6.20;;;4.53;;
7193;SDS011;3638;48.820;9.244;2023-12-07T13:35:15;5.00;;;4.50;;
7193;SDS011;3638;48.820;9.244;2023-12-07T13:37:42;5.40;;;4.90;;
7193;SDS011;3638;48.820;9.244;2023-12-07T13:40:09;6.07;;;4.97;;
7193;SDS011;3638;48.820;9.244;2023-12-07T13:42:37;5.80;;;5.10;;
7193;SDS011;3638;48.820;9.244;2023-12-07T13:45:04;6.27;;;5.23;;
7193;SDS011;3638;48.820;9.244;2023-12-07T13:47:33;5.13;;;4.63;;
7193;SDS011;3638;48.820;9.244;2023-12-07T13:50:04;6.10;;;5.20;;
7193;SDS011;3638;48.820;9.244;2023-12-07T13:52:32;5.73;;;5.20;;
7193;SDS011;3638;48.820;9.244;2023-12-07T13:55:00;5.57;;;4.97;;
7193;SDS011;3638;48.820;9.244;2023-12-07T13:57:27;6.00;;;4.93;;
7193;SDS011;3638;48.820;9.244;2023-12-07T13:59:55;5.50;;;5.00;;
7193;SDS011;3638;48.820;9.244;2023-12-07T14:02:22;6.30;;;5.43;;
7193;SDS011;3638;48.820;9.244;2023-12-07T14:04:50;7.07;;;4.67;;
7193;SDS011;3638;48.820;9.244;2023-12-07T14:07:19;6.40;;;4.50;;
7193;SDS011;3638;48.820;9.244;2023-12-07T14:09:48;4.13;;;3.67;;
7193;SDS011;3638;48.820;9.244;2023-12-07T14:12:17;4.13;;;3.70;;
7193;SDS011;3638;48.820;9.244;2023-12-07T14:14:46;3.80;;;3.50;;
7193;SDS011;3638;48.820;9.244;2023-12-07T14:17:14;4.13;;;3.60;;
7193;SDS011;3638;48.820;9.244;2023-12-07T14:19:41;3.60;;;3.30;;
7193;SDS011;3638;48.820;9.244;2023-12-07T14:22:09;5.03;;;3.47;;
7193;SDS011;3638;48.820;9.244;2023-12-07T14:24:37;4.10;;;3.70;;
7193;SDS011;3638;48.820;9.244;2023-12-07T14:27:05;4.03;;;3.63;;
7193;SDS011;3638;48.820;9.244;2023-12-07T14:29:33;5.20;;;3.40;;
7193;SDS011;3638;48.820;9.244;2023-12-07T14:32:00;4.40;;;3.30;;
7193;SDS011;3638;48.820;9.244;2023-12-07T14:34:28;3.37;;;3.10;;
7193;SDS011;3638;48.820;9.244;2023-12-07T14:36:55;3.47;;;3.17;;
7193;SDS011;3638;48.820;9.244;2023-12-07T14:39:22;7.90;;;6.33;;
7193;SDS011;3638;48.820;9.244;2023-12-07T14:41:51;4.77;;;4.00;;
7193;SDS011;3638;48.820;9.244;2023-12-07T14:44:18;4.37;;;3.93;;
7193;SDS011;3638;48.820;9.244;2023-12-07T14:46:47;4.00;;;3.70;;
7193;SDS011;3638;48.820;9.244;2023-12-07T14:49:15;4.20;;;3.90;;
7193;SDS011;3638;48.820;9.244;2023-12-07T14:51:43;4.20;;;3.80;;
7193;SDS011;3638;48.820;9.244;2023-12-07T14:54:10;4.23;;;3.30;;
7193;SDS011;3638;48.820;9.244;2023-12-07T14:56:37;4.07;;;3.67;;
7193;SDS011;3638;48.820;9.244;2023-12-07T14:59:06;4.80;;;3.90;;
7193;SDS011;3638;48.820;9.244;2023-12-07T15:01:35;5.87;;;3.90;;
7193;SDS011;3638;48.820;9.244;2023-12-07T15:04:03;4.33;;;3.93;;
7193;SDS011;3638;48.820;9.244;2023-12-07T15:06:30;4.53;;;4.07;;